XBBFU MMCU-MMCU
Flight info
| Callsign | XBBFU |
|---|---|
| Flight time | 0h 37m |
| Altitude | 7000 |
| Route | LOCAL |
| Aircraft | C152/L-STANDAR/C |
Departure
| Time | 2026-04-23 16:54 |
|---|---|
| Airport | General Roberto Fierro Villalobos International Airport (MMCU) |
Arrival
| Time | 2026-04-23 17:31 |
|---|---|
| Airport | General Roberto Fierro Villalobos International Airport (MMCU) |
| Time | Latitude | Longitude | Altitude | Speed | Heading |
|---|---|---|---|---|---|
| 2026-04-23 16:45 | 28.70183 | -105.96887 | 4441 ft | 0 kts | 96° |
| 2026-04-23 16:46 | 28.70178 | -105.96851 | 4441 ft | 8 kts | 101° |
| 2026-04-23 16:46 | 28.70199 | -105.96804 | 4440 ft | 9 kts | 11° |
| 2026-04-23 16:47 | 28.70250 | -105.96772 | 4438 ft | 10 kts | 92° |
| 2026-04-23 16:47 | 28.70299 | -105.96731 | 4437 ft | 11 kts | 42° |
| 2026-04-23 16:47 | 28.70303 | -105.96700 | 4437 ft | 0 kts | 103° |
| 2026-04-23 16:50 | 28.70301 | -105.96690 | 4436 ft | 7 kts | 97° |
| 2026-04-23 16:51 | 28.70285 | -105.96597 | 4437 ft | 14 kts | 98° |
| 2026-04-23 16:51 | 28.70219 | -105.96588 | 4438 ft | 14 kts | 190° |
| 2026-04-23 16:51 | 28.70122 | -105.96609 | 4441 ft | 14 kts | 193° |
| 2026-04-23 16:51 | 28.70020 | -105.96629 | 4442 ft | 17 kts | 190° |
| 2026-04-23 16:52 | 28.69928 | -105.96659 | 4443 ft | 7 kts | 193° |
| 2026-04-23 16:52 | 28.69955 | -105.96647 | 4443 ft | 10 kts | 10° |
| 2026-04-23 16:52 | 28.69968 | -105.96645 | 4443 ft | 0 kts | 9° |
| 2026-04-23 16:53 | 28.69972 | -105.96644 | 4442 ft | 6 kts | 8° |
| 2026-04-23 16:53 | 28.70071 | -105.96622 | 4442 ft | 38 kts | 10° |
| 2026-04-23 16:53 | 28.70484 | -105.96531 | 4433 ft | 79 kts | 14° |
| 2026-04-23 16:53 | 28.71079 | -105.96387 | 4521 ft | 90 kts | 9° |
| 2026-04-23 16:54 | 28.71715 | -105.96240 | 4631 ft | 95 kts | 8° |
| 2026-04-23 16:54 | 28.72376 | -105.96111 | 4839 ft | 97 kts | 6° |
| 2026-04-23 16:54 | 28.73041 | -105.96000 | 5085 ft | 96 kts | 8° |
| 2026-04-23 16:54 | 28.73696 | -105.95872 | 5315 ft | 95 kts | 9° |
| 2026-04-23 16:55 | 28.74319 | -105.95703 | 5530 ft | 92 kts | 12° |
| 2026-04-23 16:55 | 28.74961 | -105.95531 | 5629 ft | 94 kts | 12° |
| 2026-04-23 16:55 | 28.75597 | -105.95323 | 5668 ft | 97 kts | 14° |
| 2026-04-23 16:55 | 28.76236 | -105.95130 | 5773 ft | 92 kts | 11° |
| 2026-04-23 16:56 | 28.76865 | -105.94991 | 5895 ft | 97 kts | 9° |
| 2026-04-23 16:56 | 28.77492 | -105.94782 | 6002 ft | 93 kts | 31° |
| 2026-04-23 16:56 | 28.77798 | -105.94166 | 6101 ft | 95 kts | 85° |
| 2026-04-23 16:56 | 28.77669 | -105.93429 | 6257 ft | 95 kts | 103° |
| 2026-04-23 16:57 | 28.77500 | -105.92687 | 6423 ft | 96 kts | 105° |
| 2026-04-23 16:57 | 28.77367 | -105.91944 | 6588 ft | 96 kts | 97° |
| 2026-04-23 16:57 | 28.77305 | -105.91184 | 6713 ft | 96 kts | 93° |
| 2026-04-23 16:57 | 28.77244 | -105.90426 | 6791 ft | 96 kts | 95° |
| 2026-04-23 16:58 | 28.77179 | -105.89660 | 6862 ft | 97 kts | 96° |
| 2026-04-23 16:58 | 28.77088 | -105.88900 | 6941 ft | 97 kts | 99° |
| 2026-04-23 16:58 | 28.76963 | -105.88151 | 7005 ft | 99 kts | 100° |
| 2026-04-23 16:58 | 28.76834 | -105.87374 | 7010 ft | 100 kts | 100° |
| 2026-04-23 16:59 | 28.76705 | -105.86603 | 6998 ft | 97 kts | 100° |
| 2026-04-23 16:59 | 28.76570 | -105.85851 | 6979 ft | 96 kts | 101° |
| 2026-04-23 16:59 | 28.76445 | -105.85105 | 6974 ft | 95 kts | 100° |
| 2026-04-23 16:59 | 28.76321 | -105.84365 | 6962 ft | 95 kts | 100° |
| 2026-04-23 17:00 | 28.76183 | -105.83626 | 6941 ft | 95 kts | 102° |
| 2026-04-23 17:00 | 28.76058 | -105.82886 | 6925 ft | 95 kts | 98° |
| 2026-04-23 17:00 | 28.75966 | -105.82139 | 6914 ft | 95 kts | 95° |
| 2026-04-23 17:00 | 28.75879 | -105.81409 | 6895 ft | 95 kts | 101° |
| 2026-04-23 17:01 | 28.75710 | -105.80691 | 6884 ft | 93 kts | 105° |
| 2026-04-23 17:01 | 28.75528 | -105.79986 | 6881 ft | 92 kts | 105° |
| 2026-04-23 17:01 | 28.75342 | -105.79289 | 6904 ft | 92 kts | 106° |
| 2026-04-23 17:01 | 28.75166 | -105.78580 | 6914 ft | 92 kts | 105° |
| 2026-04-23 17:02 | 28.74983 | -105.77881 | 6923 ft | 94 kts | 106° |
| 2026-04-23 17:02 | 28.74792 | -105.77175 | 6961 ft | 92 kts | 106° |
| 2026-04-23 17:02 | 28.74610 | -105.76474 | 6964 ft | 93 kts | 103° |
| 2026-04-23 17:02 | 28.74861 | -105.75931 | 6966 ft | 89 kts | 357° |
| 2026-04-23 17:03 | 28.75228 | -105.76388 | 6999 ft | 89 kts | 263° |
| 2026-04-23 17:03 | 28.74759 | -105.76700 | 7009 ft | 93 kts | 156° |
| 2026-04-23 17:03 | 28.74440 | -105.76093 | 7014 ft | 90 kts | 130° |
| 2026-04-23 17:03 | 28.73978 | -105.76257 | 7033 ft | 85 kts | 262° |
| 2026-04-23 17:04 | 28.74361 | -105.76622 | 6997 ft | 91 kts | 26° |
| 2026-04-23 17:04 | 28.74473 | -105.75976 | 6974 ft | 92 kts | 101° |
| 2026-04-23 17:04 | 28.74337 | -105.75273 | 6958 ft | 92 kts | 102° |
| 2026-04-23 17:04 | 28.74190 | -105.74550 | 6926 ft | 93 kts | 109° |
| 2026-04-23 17:05 | 28.73668 | -105.74370 | 6918 ft | 95 kts | 226° |
| 2026-04-23 17:05 | 28.73854 | -105.74944 | 6900 ft | 98 kts | 354° |
| 2026-04-23 17:05 | 28.74237 | -105.74450 | 6871 ft | 100 kts | 103° |
| 2026-04-23 17:05 | 28.74563 | -105.73987 | 6869 ft | 94 kts | 343° |
| 2026-04-23 17:06 | 28.74742 | -105.74578 | 6910 ft | 95 kts | 230° |
| 2026-04-23 17:06 | 28.74149 | -105.74569 | 6936 ft | 97 kts | 128° |
| 2026-04-23 17:06 | 28.73970 | -105.73859 | 6937 ft | 92 kts | 102° |
| 2026-04-23 17:06 | 28.73839 | -105.73142 | 6895 ft | 94 kts | 100° |
| 2026-04-23 17:07 | 28.73889 | -105.72437 | 6883 ft | 91 kts | 56° |
| 2026-04-23 17:07 | 28.74241 | -105.71840 | 6879 ft | 90 kts | 54° |
| 2026-04-23 17:07 | 28.74601 | -105.71241 | 6879 ft | 92 kts | 56° |
| 2026-04-23 17:07 | 28.74924 | -105.70631 | 6903 ft | 91 kts | 60° |
| 2026-04-23 17:08 | 28.75249 | -105.70007 | 6903 ft | 91 kts | 57° |
| 2026-04-23 17:08 | 28.75584 | -105.69390 | 6897 ft | 92 kts | 57° |
| 2026-04-23 17:08 | 28.75914 | -105.68773 | 6922 ft | 91 kts | 57° |
| 2026-04-23 17:08 | 28.76254 | -105.68157 | 6918 ft | 93 kts | 59° |
| 2026-04-23 17:09 | 28.76556 | -105.67520 | 6955 ft | 89 kts | 50° |
| 2026-04-23 17:09 | 28.77056 | -105.67525 | 7037 ft | 86 kts | 296° |
| 2026-04-23 17:09 | 28.77193 | -105.68190 | 7133 ft | 88 kts | 285° |
| 2026-04-23 17:09 | 28.77342 | -105.68865 | 7257 ft | 87 kts | 283° |
| 2026-04-23 17:10 | 28.77455 | -105.69537 | 7378 ft | 86 kts | 281° |
| 2026-04-23 17:10 | 28.77589 | -105.70213 | 7486 ft | 87 kts | 284° |
| 2026-04-23 17:10 | 28.77744 | -105.70877 | 7579 ft | 88 kts | 284° |
| 2026-04-23 17:10 | 28.77902 | -105.71543 | 7681 ft | 87 kts | 284° |
| 2026-04-23 17:11 | 28.78050 | -105.72207 | 7760 ft | 88 kts | 282° |
| 2026-04-23 17:11 | 28.78181 | -105.72891 | 7820 ft | 92 kts | 282° |
| 2026-04-23 17:11 | 28.78310 | -105.73587 | 7871 ft | 89 kts | 280° |
| 2026-04-23 17:11 | 28.78420 | -105.74285 | 7903 ft | 89 kts | 278° |
| 2026-04-23 17:12 | 28.78518 | -105.74992 | 7930 ft | 93 kts | 278° |
| 2026-04-23 17:12 | 28.78786 | -105.75610 | 8038 ft | 88 kts | 332° |
| 2026-04-23 17:12 | 28.79373 | -105.75498 | 8107 ft | 93 kts | 46° |
| 2026-04-23 17:12 | 28.79500 | -105.74822 | 8181 ft | 91 kts | 117° |
| 2026-04-23 17:13 | 28.79013 | -105.74489 | 8307 ft | 83 kts | 188° |
| 2026-04-23 17:13 | 28.78616 | -105.74883 | 8439 ft | 81 kts | 260° |
| 2026-04-23 17:13 | 28.78728 | -105.75506 | 8551 ft | 82 kts | 284° |
| 2026-04-23 17:13 | 28.78903 | -105.76130 | 8640 ft | 85 kts | 285° |
| 2026-04-23 17:14 | 28.79075 | -105.76745 | 8787 ft | 80 kts | 284° |
| 2026-04-23 17:14 | 28.79263 | -105.77357 | 8849 ft | 85 kts | 287° |
| 2026-04-23 17:14 | 28.79457 | -105.77988 | 8867 ft | 86 kts | 289° |
| 2026-04-23 17:14 | 28.79709 | -105.78618 | 8923 ft | 88 kts | 292° |
| 2026-04-23 17:15 | 28.79870 | -105.79257 | 8892 ft | 82 kts | 256° |
| 2026-04-23 17:15 | 28.79472 | -105.79684 | 8745 ft | 85 kts | 194° |
| 2026-04-23 17:15 | 28.78944 | -105.79411 | 8563 ft | 96 kts | 123° |
| 2026-04-23 17:15 | 28.78900 | -105.78680 | 8404 ft | 97 kts | 65° |
| 2026-04-23 17:16 | 28.79420 | -105.78245 | 8208 ft | 97 kts | 1° |
| 2026-04-23 17:16 | 28.79959 | -105.78587 | 7967 ft | 95 kts | 297° |
| 2026-04-23 17:16 | 28.80147 | -105.79272 | 7897 ft | 85 kts | 284° |
| 2026-04-23 17:16 | 28.80275 | -105.79951 | 7915 ft | 88 kts | 281° |
| 2026-04-23 17:17 | 28.80455 | -105.80613 | 8004 ft | 86 kts | 318° |
| 2026-04-23 17:17 | 28.80992 | -105.80663 | 8119 ft | 87 kts | 33° |
| 2026-04-23 17:17 | 28.81218 | -105.80300 | 8217 ft | 84 kts | 83° |
| 2026-04-23 17:17 | 28.80805 | -105.79738 | 8390 ft | 76 kts | 186° |
| 2026-04-23 17:18 | 28.80659 | -105.80531 | 8604 ft | 73 kts | 294° |
| 2026-04-23 17:18 | 28.80823 | -105.81140 | 8555 ft | 84 kts | 288° |
| 2026-04-23 17:18 | 28.81047 | -105.81755 | 8658 ft | 85 kts | 291° |
| 2026-04-23 17:19 | 28.81246 | -105.82357 | 8775 ft | 82 kts | 288° |
| 2026-04-23 17:19 | 28.81450 | -105.82938 | 8909 ft | 75 kts | 287° |
| 2026-04-23 17:19 | 28.81631 | -105.83534 | 8935 ft | 86 kts | 283° |
| 2026-04-23 17:19 | 28.81766 | -105.84203 | 9003 ft | 85 kts | 279° |
| 2026-04-23 17:20 | 28.81792 | -105.84860 | 8976 ft | 83 kts | 251° |
| 2026-04-23 17:20 | 28.80731 | -105.85244 | 8634 ft | 102 kts | 151° |
| 2026-04-23 17:21 | 28.80652 | -105.83936 | 8159 ft | 98 kts | 24° |
| 2026-04-23 17:21 | 28.81274 | -105.84002 | 8036 ft | 92 kts | 320° |
| 2026-04-23 17:21 | 28.81684 | -105.85321 | 7920 ft | 89 kts | 283° |
| 2026-04-23 17:22 | 28.81841 | -105.85994 | 7944 ft | 89 kts | 283° |
| 2026-04-23 17:22 | 28.82124 | -105.87335 | 7951 ft | 87 kts | 282° |
| 2026-04-23 17:23 | 28.82419 | -105.88652 | 7882 ft | 86 kts | 283° |
| 2026-04-23 17:23 | 28.82572 | -105.89321 | 7866 ft | 89 kts | 283° |
| 2026-04-23 17:23 | 28.82863 | -105.90638 | 7816 ft | 84 kts | 283° |
| 2026-04-23 17:24 | 28.83003 | -105.91286 | 7831 ft | 83 kts | 283° |
| 2026-04-23 17:24 | 28.83115 | -105.91931 | 7834 ft | 84 kts | 280° |
| 2026-04-23 17:24 | 28.83368 | -105.93245 | 7806 ft | 86 kts | 282° |
| 2026-04-23 17:25 | 28.83866 | -105.94368 | 7729 ft | 90 kts | 344° |
| 2026-04-23 17:25 | 28.84443 | -105.94133 | 7610 ft | 99 kts | 56° |
| 2026-04-23 17:26 | 28.83718 | -105.93671 | 7174 ft | 100 kts | 228° |
| 2026-04-23 17:26 | 28.82516 | -105.94134 | 7016 ft | 91 kts | 190° |
| 2026-04-23 17:27 | 28.81264 | -105.94330 | 6775 ft | 93 kts | 196° |
| 2026-04-23 17:27 | 28.80654 | -105.94512 | 6677 ft | 88 kts | 203° |
| 2026-04-23 17:27 | 28.80061 | -105.94665 | 6634 ft | 86 kts | 196° |
| 2026-04-23 17:27 | 28.79455 | -105.94763 | 6507 ft | 89 kts | 189° |
| 2026-04-23 17:28 | 28.78865 | -105.94930 | 6456 ft | 87 kts | 194° |
| 2026-04-23 17:28 | 28.78270 | -105.95091 | 6228 ft | 92 kts | 191° |
| 2026-04-23 17:28 | 28.77630 | -105.95151 | 6019 ft | 96 kts | 181° |
| 2026-04-23 17:28 | 28.76964 | -105.95188 | 5838 ft | 95 kts | 185° |
| 2026-04-23 17:29 | 28.76316 | -105.95266 | 5717 ft | 92 kts | 192° |
| 2026-04-23 17:29 | 28.75685 | -105.95336 | 5578 ft | 87 kts | 187° |
| 2026-04-23 17:29 | 28.74545 | -105.95527 | 5285 ft | 84 kts | 194° |
| 2026-04-23 17:30 | 28.74164 | -105.95617 | 5270 ft | 82 kts | 193° |
| 2026-04-23 17:30 | 28.72899 | -105.95952 | 4995 ft | 80 kts | 197° |
| 2026-04-23 17:30 | 28.72367 | -105.96129 | 4892 ft | 75 kts | 189° |
| 2026-04-23 17:31 | 28.71866 | -105.96212 | 4723 ft | 70 kts | 187° |
| 2026-04-23 17:31 | 28.71402 | -105.96333 | 4459 ft | 66 kts | 187° |
| 2026-04-23 17:31 | 28.71008 | -105.96414 | 4420 ft | 47 kts | 191° |
| 2026-04-23 17:31 | 28.70731 | -105.96474 | 4427 ft | 40 kts | 197° |
| 2026-04-23 17:32 | 28.70341 | -105.96560 | 4447 ft | 71 kts | 192° |
| 2026-04-23 17:32 | 28.69842 | -105.96686 | 4566 ft | 76 kts | 189° |
| 2026-04-23 17:32 | 28.69324 | -105.96828 | 4733 ft | 77 kts | 193° |
| 2026-04-23 17:32 | 28.68805 | -105.96960 | 4898 ft | 77 kts | 192° |
| 2026-04-23 17:33 | 28.68274 | -105.97058 | 5087 ft | 79 kts | 191° |
| 2026-04-23 17:33 | 28.67820 | -105.97334 | 5304 ft | 82 kts | 254° |
| 2026-04-23 17:33 | 28.67977 | -105.97996 | 5436 ft | 89 kts | 288° |
| 2026-04-23 17:33 | 28.68198 | -105.98629 | 5488 ft | 85 kts | 291° |
| 2026-04-23 17:34 | 28.68701 | -105.98850 | 5508 ft | 95 kts | 18° |
| 2026-04-23 17:34 | 28.69353 | -105.98661 | 5511 ft | 97 kts | 8° |
| 2026-04-23 17:34 | 28.70614 | -105.98356 | 5454 ft | 92 kts | 6° |
| 2026-04-23 17:35 | 28.71235 | -105.98248 | 5485 ft | 90 kts | 4° |
| 2026-04-23 17:35 | 28.72277 | -105.98114 | 5512 ft | 89 kts | 358° |
| 2026-04-23 17:35 | 28.73097 | -105.98062 | 5624 ft | 87 kts | 5° |
| 2026-04-23 17:36 | 28.73486 | -105.97664 | 5685 ft | 83 kts | 88° |
| 2026-04-23 17:36 | 28.73336 | -105.97015 | 5598 ft | 87 kts | 111° |
| 2026-04-23 17:36 | 28.73177 | -105.96378 | 5408 ft | 82 kts | 108° |
| 2026-04-23 17:36 | 28.72782 | -105.96069 | 5147 ft | 81 kts | 183° |
| 2026-04-23 17:37 | 28.72233 | -105.96139 | 4845 ft | 78 kts | 189° |
| 2026-04-23 17:37 | 28.71726 | -105.96268 | 4565 ft | 73 kts | 188° |
| 2026-04-23 17:37 | 28.70875 | -105.96442 | 4424 ft | 46 kts | 190° |
| 2026-04-23 17:38 | 28.70593 | -105.96502 | 4431 ft | 38 kts | 187° |
| 2026-04-23 17:38 | 28.70260 | -105.96577 | 4437 ft | 64 kts | 193° |
| 2026-04-23 17:38 | 28.69767 | -105.96692 | 4511 ft | 77 kts | 189° |
| 2026-04-23 17:38 | 28.69217 | -105.96804 | 4612 ft | 82 kts | 189° |
| 2026-04-23 17:39 | 28.68665 | -105.96859 | 4777 ft | 80 kts | 183° |
| 2026-04-23 17:39 | 28.68114 | -105.96932 | 4976 ft | 80 kts | 192° |
| 2026-04-23 17:39 | 28.67586 | -105.97041 | 5251 ft | 77 kts | 201° |
| 2026-04-23 17:39 | 28.67119 | -105.97375 | 5368 ft | 87 kts | 245° |
| 2026-04-23 17:40 | 28.67258 | -105.98056 | 5499 ft | 90 kts | 291° |
| 2026-04-23 17:40 | 28.67418 | -105.98500 | 5586 ft | 94 kts | 287° |
| 2026-04-23 17:40 | 28.67884 | -105.98932 | 5699 ft | 97 kts | 7° |
| 2026-04-23 17:40 | 28.68741 | -105.98697 | 5660 ft | 96 kts | 11° |
| 2026-04-23 17:41 | 28.69392 | -105.98434 | 5567 ft | 103 kts | 19° |
| 2026-04-23 17:41 | 28.70485 | -105.98024 | 5412 ft | 96 kts | 5° |
| 2026-04-23 17:41 | 28.71334 | -105.97865 | 5370 ft | 94 kts | 5° |
| 2026-04-23 17:42 | 28.72441 | -105.97678 | 5296 ft | 96 kts | 6° |
| 2026-04-23 17:42 | 28.73112 | -105.97553 | 5406 ft | 98 kts | 11° |
| 2026-04-23 17:42 | 28.73513 | -105.97101 | 5478 ft | 88 kts | 100° |
| 2026-04-23 17:43 | 28.73348 | -105.96404 | 5320 ft | 93 kts | 111° |
| 2026-04-23 17:43 | 28.72926 | -105.95998 | 5098 ft | 83 kts | 191° |
| 2026-04-23 17:43 | 28.72371 | -105.96122 | 4848 ft | 82 kts | 197° |
| 2026-04-23 17:43 | 28.71821 | -105.96252 | 4645 ft | 76 kts | 183° |
| 2026-04-23 17:44 | 28.71335 | -105.96346 | 4421 ft | 67 kts | 189° |
| 2026-04-23 17:44 | 28.70954 | -105.96421 | 4422 ft | 44 kts | 192° |
| 2026-04-23 17:44 | 28.70285 | -105.96580 | 4463 ft | 70 kts | 189° |
| 2026-04-23 17:45 | 28.69780 | -105.96678 | 4557 ft | 77 kts | 186° |
| 2026-04-23 17:45 | 28.68710 | -105.96896 | 4875 ft | 78 kts | 193° |
| 2026-04-23 17:45 | 28.68171 | -105.97018 | 5042 ft | 81 kts | 194° |
| 2026-04-23 17:46 | 28.67171 | -105.97419 | 5399 ft | 87 kts | 271° |
| 2026-04-23 17:46 | 28.67349 | -105.98094 | 5497 ft | 89 kts | 286° |
| 2026-04-23 17:46 | 28.67570 | -105.98744 | 5573 ft | 85 kts | 288° |
| 2026-04-23 17:47 | 28.67923 | -105.99223 | 5600 ft | 95 kts | 357° |
| 2026-04-23 17:47 | 28.68562 | -105.99049 | 5563 ft | 94 kts | 14° |
| 2026-04-23 17:47 | 28.69802 | -105.98610 | 5489 ft | 92 kts | 12° |
| 2026-04-23 17:48 | 28.70424 | -105.98400 | 5506 ft | 92 kts | 14° |
| 2026-04-23 17:48 | 28.71042 | -105.98222 | 5477 ft | 92 kts | 8° |
| 2026-04-23 17:48 | 28.71681 | -105.98061 | 5386 ft | 94 kts | 12° |
| 2026-04-23 17:48 | 28.72320 | -105.97935 | 5393 ft | 94 kts | 6° |
| 2026-04-23 17:49 | 28.72971 | -105.97803 | 5499 ft | 94 kts | 8° |
| 2026-04-23 17:49 | 28.73589 | -105.97670 | 5531 ft | 89 kts | 9° |
| 2026-04-23 17:49 | 28.73846 | -105.97155 | 5514 ft | 99 kts | 123° |
| 2026-04-23 17:49 | 28.73639 | -105.96458 | 5384 ft | 89 kts | 99° |
| 2026-04-23 17:50 | 28.73289 | -105.95991 | 5175 ft | 87 kts | 181° |
| 2026-04-23 17:50 | 28.72134 | -105.96170 | 4736 ft | 79 kts | 189° |
| 2026-04-23 17:50 | 28.71605 | -105.96289 | 4513 ft | 77 kts | 188° |
| 2026-04-23 17:51 | 28.71107 | -105.96397 | 4418 ft | 63 kts | 188° |
| 2026-04-23 17:51 | 28.70744 | -105.96474 | 4426 ft | 44 kts | 191° |
| 2026-04-23 17:51 | 28.70448 | -105.96577 | 4433 ft | 12 kts | 259° |
| 2026-04-23 17:52 | 28.70442 | -105.96632 | 4433 ft | 0 kts | 260° |
| 2026-04-23 17:53 | 28.70439 | -105.96650 | 4433 ft | 6 kts | 259° |
| 2026-04-23 17:53 | 28.70423 | -105.96703 | 4433 ft | 7 kts | 209° |
| 2026-04-23 17:53 | 28.70381 | -105.96717 | 4435 ft | 5 kts | 192° |
| 2026-04-23 17:54 | 28.70339 | -105.96726 | 4436 ft | 8 kts | 188° |
| 2026-04-23 17:54 | 28.70277 | -105.96742 | 4437 ft | 10 kts | 190° |
| 2026-04-23 17:54 | 28.70144 | -105.96771 | 4441 ft | 8 kts | 199° |
| 2026-04-23 17:55 | 28.70164 | -105.96814 | 4441 ft | 0 kts | 326° |
| 2026-04-23 17:55 | 28.70172 | -105.96825 | 4440 ft | 7 kts | 283° |
| 2026-04-23 17:56 | 28.70161 | -105.96863 | 4441 ft | 0 kts | 191° |